Time;durP1;ratioP1;P1;durP2;ratioP2;P2;SDS_P1;SDS_P2;PMS_P1;PMS_P2;Temp;Humidity;BMP_temperature;BMP_pressure;BME280_temperature;BME280_humidity;BME280_pressure;Samples;Min_cycle;Max_cycle;Signal;HPM_P1;HPM_P2
2023/10/25 00:01:41;;;;;;;12.43;7.07;;;;;;;;;;5130433;27;20056;-56
2023/10/25 00:04:08;;;;;;;13.73;9.05;;;;;;;;;;5144618;27;20051;-56
2023/10/25 00:06:34;;;;;;;15.63;8.70;;;;;;;;;;5128641;27;20058;-57
2023/10/25 00:09:01;;;;;;;8.13;5.90;;;;;;;;;;5132598;27;20586;-57
2023/10/25 00:11:28;;;;;;;10.05;6.57;;;;;;;;;;5140457;27;20141;-57
2023/10/25 00:13:54;;;;;;;11.52;6.53;;;;;;;;;;5131237;27;20050;-56
2023/10/25 00:16:20;;;;;;;13.50;7.50;;;;;;;;;;5143539;27;20116;-58
2023/10/25 00:18:47;;;;;;;9.32;7.07;;;;;;;;;;5135154;27;20094;-57
2023/10/25 00:21:14;;;;;;;11.30;6.88;;;;;;;;;;5127496;27;20055;-58
2023/10/25 00:23:40;;;;;;;17.70;10.18;;;;;;;;;;5124487;27;20047;-55
2023/10/25 00:26:07;;;;;;;16.27;9.27;;;;;;;;;;5123730;27;20407;-56
2023/10/25 00:28:33;;;;;;;12.30;8.15;;;;;;;;;;5135847;27;20133;-58
2023/10/25 00:31:00;;;;;;;15.02;10.40;;;;;;;;;;5143073;27;20048;-57
2023/10/25 00:33:26;;;;;;;12.55;9.15;;;;;;;;;;5143614;27;20520;-58
2023/10/25 00:35:52;;;;;;;31.50;25.05;;;;;;;;;;5144313;27;20894;-58
2023/10/25 00:38:19;;;;;;;14.40;10.13;;;;;;;;;;5134803;27;20056;-55
2023/10/25 00:40:45;;;;;;;21.35;13.88;;;;;;;;;;5123646;27;20051;-57
2023/10/25 00:43:22;;;;;;;31.77;25.35;;;;;;;;;;5122312;27;20109;-56
2023/10/25 00:45:58;;;;;;;28.27;20.92;;;;;;;;;;5123166;27;20047;-56
2023/10/25 00:48:25;;;;;;;20.27;11.35;;;;;;;;;;5142036;27;20077;-56
2023/10/25 00:50:52;;;;;;;20.63;13.40;;;;;;;;;;5143357;27;20055;-55
2023/10/25 00:53:19;;;;;;;13.65;10.18;;;;;;;;;;5135603;27;20055;-55
2023/10/25 00:55:46;;;;;;;25.70;17.95;;;;;;;;;;5122777;27;20055;-58
2023/10/25 00:58:12;;;;;;;23.15;15.40;;;;;;;;;;5126819;27;20050;-56
2023/10/25 01:00:39;;;;;;;21.20;11.48;;;;;;;;;;5129188;27;20497;-55
2023/10/25 01:03:08;;;;;;;33.10;15.65;;;;;;;;;;5131963;27;20048;-56
2023/10/25 01:05:35;;;;;;;24.08;14.60;;;;;;;;;;5143322;27;20075;-57
2023/10/25 01:08:01;;;;;;;21.77;13.25;;;;;;;;;;5139398;27;20517;-55
2023/10/25 01:10:28;;;;;;;20.95;11.65;;;;;;;;;;5122977;27;20480;-58
2023/10/25 01:12:54;;;;;;;21.58;10.18;;;;;;;;;;5133933;27;20493;-56
2023/10/25 01:15:22;;;;;;;19.30;10.35;;;;;;;;;;5142681;27;20130;-59
2023/10/25 01:17:48;;;;;;;17.40;9.65;;;;;;;;;;5129466;27;20048;-56
2023/10/25 01:20:15;;;;;;;17.08;8.93;;;;;;;;;;5122964;27;20063;-57
2023/10/25 01:22:41;;;;;;;16.48;8.57;;;;;;;;;;5134116;27;20054;-56
2023/10/25 01:25:08;;;;;;;11.73;7.50;;;;;;;;;;5137744;27;20100;-56
2023/10/25 01:27:34;;;;;;;21.17;10.18;;;;;;;;;;5135248;27;20440;-56
2023/10/25 01:30:01;;;;;;;15.23;7.57;;;;;;;;;;5127943;27;20101;-57
2023/10/25 01:32:27;;;;;;;20.83;10.30;;;;;;;;;;5144656;27;20524;-57
2023/10/25 01:34:54;;;;;;;14.57;8.30;;;;;;;;;;5145922;27;20058;-57
2023/10/25 01:37:20;;;;;;;21.77;9.82;;;;;;;;;;5134122;27;20050;-52
2023/10/25 01:39:46;;;;;;;12.98;7.57;;;;;;;;;;5126422;27;20055;-54
2023/10/25 01:42:13;;;;;;;15.25;7.30;;;;;;;;;;5124672;27;20336;-58
2023/10/25 01:44:39;;;;;;;12.23;7.03;;;;;;;;;;5125057;27;20062;-58
2023/10/25 01:47:06;;;;;;;12.00;7.65;;;;;;;;;;5134638;27;20061;-56
2023/10/25 01:49:32;;;;;;;11.30;6.60;;;;;;;;;;5146324;27;20143;-56
2023/10/25 01:51:59;;;;;;;13.02;6.60;;;;;;;;;;5135910;27;20137;-56
2023/10/25 01:54:26;;;;;;;10.05;7.38;;;;;;;;;;5131908;27;20180;-54
2023/10/25 01:56:52;;;;;;;11.70;5.80;;;;;;;;;;5124960;27;20055;-57
2023/10/25 01:59:18;;;;;;;15.85;7.88;;;;;;;;;;5109206;27;20055;-55
2023/10/25 02:01:45;;;;;;;11.07;6.38;;;;;;;;;;5147474;27;20142;-55
2023/10/25 02:04:11;;;;;;;13.88;6.88;;;;;;;;;;5111130;27;20056;-54
2023/10/25 02:06:39;;;;;;;10.15;5.97;;;;;;;;;;5134204;27;20054;-57
2023/10/25 02:09:06;;;;;;;10.77;6.18;;;;;;;;;;5141501;27;20043;-58
2023/10/25 02:11:32;;;;;;;6.72;5.60;;;;;;;;;;5145959;27;20260;-56
2023/10/25 02:13:59;;;;;;;10.10;5.97;;;;;;;;;;5143281;27;20051;-56
2023/10/25 02:16:26;;;;;;;11.23;6.22;;;;;;;;;;5133263;27;20055;-55
2023/10/25 02:18:54;;;;;;;10.27;5.60;;;;;;;;;;5127937;27;20071;-58
2023/10/25 02:21:20;;;;;;;10.50;5.88;;;;;;;;;;5135136;27;20066;-55
2023/10/25 02:23:46;;;;;;;11.50;6.25;;;;;;;;;;5146631;27;20043;-56
2023/10/25 02:26:13;;;;;;;8.57;5.97;;;;;;;;;;5144415;27;20075;-56
2023/10/25 02:28:39;;;;;;;8.90;5.68;;;;;;;;;;5135088;27;20104;-57
2023/10/25 02:31:06;;;;;;;12.40;6.40;;;;;;;;;;5107214;27;20105;-58
2023/10/25 02:33:32;;;;;;;9.73;6.32;;;;;;;;;;5139779;27;20071;-57
2023/10/25 02:35:59;;;;;;;10.45;5.75;;;;;;;;;;5127910;27;20055;-54
2023/10/25 02:38:26;;;;;;;11.38;5.85;;;;;;;;;;5143785;27;20051;-58
2023/10/25 02:40:52;;;;;;;13.65;5.82;;;;;;;;;;5144879;27;20227;-57
2023/10/25 02:43:18;;;;;;;7.93;5.43;;;;;;;;;;5131094;27;20586;-55
2023/10/25 02:45:45;;;;;;;9.65;5.60;;;;;;;;;;5143756;27;20054;-56
2023/10/25 02:48:13;;;;;;;9.30;5.60;;;;;;;;;;5142131;27;20629;-58
2023/10/25 02:50:40;;;;;;;9.15;5.97;;;;;;;;;;5124029;27;20062;-56
2023/10/25 02:53:06;;;;;;;9.80;5.43;;;;;;;;;;5143544;27;20051;-56
2023/10/25 02:55:33;;;;;;;10.68;6.00;;;;;;;;;;5124766;27;20055;-56
2023/10/25 02:57:59;;;;;;;11.95;5.18;;;;;;;;;;5124310;27;20564;-54
2023/10/25 03:00:26;;;;;;;8.35;5.38;;;;;;;;;;5144529;27;20053;-58
2023/10/25 03:02:52;;;;;;;10.80;5.40;;;;;;;;;;5144649;27;20047;-57
2023/10/25 03:05:19;;;;;;;10.45;6.07;;;;;;;;;;5140557;27;20474;-56
2023/10/25 03:07:45;;;;;;;8.57;5.15;;;;;;;;;;5138114;27;20085;-57
2023/10/25 03:10:12;;;;;;;11.57;5.30;;;;;;;;;;5133370;27;20490;-57
2023/10/25 03:12:38;;;;;;;11.30;5.70;;;;;;;;;;5128560;27;20559;-56
2023/10/25 03:15:05;;;;;;;9.57;5.40;;;;;;;;;;5145555;27;20047;-56
2023/10/25 03:17:31;;;;;;;8.02;5.63;;;;;;;;;;5144555;27;20055;-57
2023/10/25 03:20:00;;;;;;;7.82;5.00;;;;;;;;;;5131100;27;20078;-57
2023/10/25 03:22:28;;;;;;;9.05;5.65;;;;;;;;;;5124314;27;20113;-58
2023/10/25 03:24:55;;;;;;;9.63;4.95;;;;;;;;;;5123339;27;20051;-58
2023/10/25 03:27:22;;;;;;;9.43;6.50;;;;;;;;;;5139148;27;20055;-58
2023/10/25 03:29:49;;;;;;;7.53;4.72;;;;;;;;;;5129075;27;20525;-55
2023/10/25 03:32:15;;;;;;;12.52;4.80;;;;;;;;;;5123823;27;20067;-57
2023/10/25 03:34:42;;;;;;;11.70;4.80;;;;;;;;;;5123354;27;20052;-59
2023/10/25 03:37:08;;;;;;;10.02;5.07;;;;;;;;;;5123419;27;20519;-57
2023/10/25 03:39:35;;;;;;;7.88;4.88;;;;;;;;;;5140895;27;20051;-57
2023/10/25 03:42:01;;;;;;;8.10;5.07;;;;;;;;;;5141752;27;20104;-57
2023/10/25 03:44:28;;;;;;;6.53;4.57;;;;;;;;;;5143073;27;20047;-58
2023/10/25 03:46:54;;;;;;;11.00;5.13;;;;;;;;;;5144171;27;20504;-58
2023/10/25 03:49:21;;;;;;;10.05;4.90;;;;;;;;;;5112370;27;20048;-59
2023/10/25 03:51:47;;;;;;;10.63;5.32;;;;;;;;;;5135983;27;20481;-56
2023/10/25 03:54:14;;;;;;;9.43;5.75;;;;;;;;;;5143676;27;20047;-56
2023/10/25 03:56:42;;;;;;;10.65;5.93;;;;;;;;;;5144263;27;20531;-59
2023/10/25 03:59:08;;;;;;;8.45;4.85;;;;;;;;;;5142858;27;20078;-57
2023/10/25 04:01:35;;;;;;;9.77;5.10;;;;;;;;;;5143638;27;20452;-58
2023/10/25 04:04:01;;;;;;;10.65;5.38;;;;;;;;;;5134301;27;20142;-56
2023/10/25 04:06:28;;;;;;;11.98;5.53;;;;;;;;;;5122500;27;20052;-54
2023/10/25 04:08:55;;;;;;;8.68;5.60;;;;;;;;;;5129517;27;20421;-58
2023/10/25 04:11:21;;;;;;;7.65;5.07;;;;;;;;;;5126920;27;20059;-58
2023/10/25 04:13:48;;;;;;;14.00;5.47;;;;;;;;;;5126935;27;20143;-56
2023/10/25 04:16:14;;;;;;;9.57;5.35;;;;;;;;;;5123497;27;20051;-58
2023/10/25 04:18:41;;;;;;;10.63;6.05;;;;;;;;;;5119512;27;20466;-58
2023/10/25 04:21:11;;;;;;;10.57;5.80;;;;;;;;;;5139149;27;20055;-56
2023/10/25 04:23:38;;;;;;;12.57;7.20;;;;;;;;;;5114729;27;20132;-56
2023/10/25 04:26:11;;;;;;;11.05;6.35;;;;;;;;;;5129579;27;20116;-57
2023/10/25 04:28:38;;;;;;;12.38;5.35;;;;;;;;;;5140111;27;20047;-57
2023/10/25 04:31:06;;;;;;;12.70;6.18;;;;;;;;;;5125581;27;20052;-56
2023/10/25 04:33:33;;;;;;;11.27;5.97;;;;;;;;;;5126971;27;20485;-55
2023/10/25 04:35:59;;;;;;;9.93;5.63;;;;;;;;;;5132860;27;20082;-55
2023/10/25 04:38:26;;;;;;;8.63;5.53;;;;;;;;;;5126653;27;20051;-57
2023/10/25 04:40:52;;;;;;;10.32;6.00;;;;;;;;;;5139180;27;20141;-56
2023/10/25 04:43:19;;;;;;;10.77;6.38;;;;;;;;;;5130136;27;20098;-56
2023/10/25 04:45:45;;;;;;;12.93;6.15;;;;;;;;;;5130752;27;20132;-58
2023/10/25 04:48:12;;;;;;;7.90;5.40;;;;;;;;;;5130661;27;20052;-58
2023/10/25 04:50:39;;;;;;;7.72;5.28;;;;;;;;;;5134700;27;20050;-53
2023/10/25 04:53:05;;;;;;;12.63;6.63;;;;;;;;;;5143817;27;20051;-58
2023/10/25 04:55:34;;;;;;;23.73;7.97;;;;;;;;;;5143495;27;20077;-59
2023/10/25 04:58:00;;;;;;;10.90;7.25;;;;;;;;;;5144540;27;20062;-57
2023/10/25 05:00:27;;;;;;;9.32;5.88;;;;;;;;;;5144320;27;20447;-58
2023/10/25 05:02:54;;;;;;;14.77;6.50;;;;;;;;;;5135190;27;20671;-59
2023/10/25 05:05:21;;;;;;;12.75;6.38;;;;;;;;;;5138908;27;20051;-58
2023/10/25 05:07:48;;;;;;;12.60;7.38;;;;;;;;;;5134878;27;20128;-57
2023/10/25 05:10:14;;;;;;;14.13;6.35;;;;;;;;;;5142362;27;20047;-59
2023/10/25 05:12:42;;;;;;;15.75;6.57;;;;;;;;;;5126243;27;20055;-59
2023/10/25 05:15:09;;;;;;;10.80;6.13;;;;;;;;;;5129087;27;20056;-58
2023/10/25 05:17:37;;;;;;;11.07;6.40;;;;;;;;;;5138454;27;20055;-57
2023/10/25 05:20:07;;;;;;;11.38;6.50;;;;;;;;;;5129831;27;20052;-53
2023/10/25 05:22:34;;;;;;;14.05;6.47;;;;;;;;;;5127590;27;20066;-58
2023/10/25 05:25:01;;;;;;;11.40;7.07;;;;;;;;;;5144666;27;20108;-58
2023/10/25 05:27:28;;;;;;;10.07;5.88;;;;;;;;;;5139581;27;20142;-57
2023/10/25 05:29:59;;;;;;;11.30;6.05;;;;;;;;;;5137758;27;20545;-58
2023/10/25 05:32:26;;;;;;;11.93;6.20;;;;;;;;;;5125339;27;20502;-58
2023/10/25 05:34:52;;;;;;;8.65;6.07;;;;;;;;;;5125719;27;20052;-58
2023/10/25 05:37:19;;;;;;;12.27;6.53;;;;;;;;;;5131906;27;20081;-51
2023/10/25 05:39:45;;;;;;;6.93;5.80;;;;;;;;;;5138051;27;20055;-58
2023/10/25 05:42:16;;;;;;;13.00;6.47;;;;;;;;;;5138115;27;20138;-57
2023/10/25 05:44:43;;;;;;;14.98;6.00;;;;;;;;;;5140231;27;20141;-57
2023/10/25 05:47:09;;;;;;;11.90;6.45;;;;;;;;;;5138597;27;20051;-58
2023/10/25 05:49:36;;;;;;;12.27;5.68;;;;;;;;;;5130021;27;20139;-57
2023/10/25 05:52:02;;;;;;;10.98;5.93;;;;;;;;;;5133286;27;20051;-58
2023/10/25 05:54:29;;;;;;;8.68;5.65;;;;;;;;;;5127065;27;20049;-57
2023/10/25 05:56:55;;;;;;;11.10;5.57;;;;;;;;;;5145882;27;20444;-58
2023/10/25 05:59:22;;;;;;;10.23;5.00;;;;;;;;;;5135031;27;20051;-58
2023/10/25 06:01:49;;;;;;;11.98;5.70;;;;;;;;;;5139357;27;20066;-57
2023/10/25 06:04:17;;;;;;;10.88;5.35;;;;;;;;;;5139819;27;20063;-57
2023/10/25 06:06:44;;;;;;;11.32;5.72;;;;;;;;;;5128366;27;20072;-57
2023/10/25 06:09:11;;;;;;;6.80;5.15;;;;;;;;;;5141276;27;20138;-58
2023/10/25 06:11:40;;;;;;;16.45;8.10;;;;;;;;;;5132570;27;20128;-56
2023/10/25 06:14:08;;;;;;;10.85;5.40;;;;;;;;;;5134726;27;20055;-54
2023/10/25 06:16:34;;;;;;;11.30;5.28;;;;;;;;;;5143323;27;20055;-58
2023/10/25 06:19:01;;;;;;;10.27;5.68;;;;;;;;;;5116071;27;20055;-55
2023/10/25 06:21:27;;;;;;;7.22;5.43;;;;;;;;;;5140474;27;20043;-57
2023/10/25 06:23:54;;;;;;;12.50;6.88;;;;;;;;;;5140804;27;20056;-57
2023/10/25 06:26:20;;;;;;;14.30;6.68;;;;;;;;;;5140898;27;20109;-58
2023/10/25 06:28:46;;;;;;;9.60;6.03;;;;;;;;;;5125076;27;20060;-58
2023/10/25 06:31:15;;;;;;;17.63;6.35;;;;;;;;;;5143493;27;20515;-58
2023/10/25 06:33:42;;;;;;;13.70;6.07;;;;;;;;;;5143841;27;20160;-57
2023/10/25 06:36:09;;;;;;;8.88;5.75;;;;;;;;;;5144361;27;20043;-58
2023/10/25 06:38:36;;;;;;;12.10;6.47;;;;;;;;;;5145897;27;20050;-57
2023/10/25 06:41:03;;;;;;;9.05;6.20;;;;;;;;;;5123471;27;20052;-55
2023/10/25 06:43:30;;;;;;;12.07;6.20;;;;;;;;;;5124624;27;20051;-57
2023/10/25 06:45:59;;;;;;;9.23;6.68;;;;;;;;;;5143637;27;20092;-55
2023/10/25 06:48:26;;;;;;;13.30;7.65;;;;;;;;;;5142315;27;20501;-59
2023/10/25 06:50:54;;;;;;;20.33;6.78;;;;;;;;;;5132602;27;20135;-55
2023/10/25 06:53:20;;;;;;;17.55;6.43;;;;;;;;;;5123962;27;20051;-57
2023/10/25 06:55:47;;;;;;;13.65;6.63;;;;;;;;;;5134720;27;20055;-58
2023/10/25 06:58:13;;;;;;;11.90;6.80;;;;;;;;;;5137368;27;20055;-58
2023/10/25 07:00:40;;;;;;;14.70;6.72;;;;;;;;;;5142160;27;20717;-58
2023/10/25 07:03:09;;;;;;;11.07;6.75;;;;;;;;;;5139205;27;20164;-57
2023/10/25 07:05:36;;;;;;;10.48;6.60;;;;;;;;;;5137349;27;20480;-58
2023/10/25 07:08:03;;;;;;;9.88;7.80;;;;;;;;;;5130544;27;20562;-58
2023/10/25 07:10:29;;;;;;;16.02;7.35;;;;;;;;;;5130272;27;20055;-58
2023/10/25 07:12:56;;;;;;;12.45;7.20;;;;;;;;;;5125151;27;20048;-55
2023/10/25 07:15:24;;;;;;;14.02;7.40;;;;;;;;;;5123473;27;20051;-57
2023/10/25 07:17:51;;;;;;;18.38;6.72;;;;;;;;;;5132569;27;20051;-56
2023/10/25 07:20:17;;;;;;;12.75;6.72;;;;;;;;;;5142251;27;20430;-54
2023/10/25 07:22:44;;;;;;;11.82;7.70;;;;;;;;;;5133591;27;20051;-57
2023/10/25 07:25:10;;;;;;;12.57;7.07;;;;;;;;;;5122250;27;20055;-58
2023/10/25 07:27:37;;;;;;;11.60;7.25;;;;;;;;;;5143381;27;20040;-58
2023/10/25 07:30:04;;;;;;;11.07;6.80;;;;;;;;;;5120262;27;20110;-58
2023/10/25 07:32:32;;;;;;;13.43;7.32;;;;;;;;;;5139578;27;20134;-57
2023/10/25 07:34:58;;;;;;;12.15;6.68;;;;;;;;;;5128290;27;20372;-56
2023/10/25 07:37:25;;;;;;;9.75;6.22;;;;;;;;;;5142701;27;20112;-56
2023/10/25 07:39:51;;;;;;;9.13;6.63;;;;;;;;;;5142889;27;20071;-55
2023/10/25 07:42:17;;;;;;;10.35;6.30;;;;;;;;;;5140273;27;20509;-57
2023/10/25 07:44:44;;;;;;;7.97;6.13;;;;;;;;;;5140556;27;20573;-58
2023/10/25 07:47:10;;;;;;;11.52;6.55;;;;;;;;;;5137217;27;20058;-58
2023/10/25 07:49:37;;;;;;;12.73;6.90;;;;;;;;;;5143554;27;20047;-53
2023/10/25 07:52:04;;;;;;;8.32;6.00;;;;;;;;;;5142487;27;20128;-59
2023/10/25 07:54:30;;;;;;;11.13;6.15;;;;;;;;;;5144288;27;20055;-58
2023/10/25 07:56:56;;;;;;;11.38;6.55;;;;;;;;;;5137814;27;20052;-55
2023/10/25 07:59:26;;;;;;;10.52;6.32;;;;;;;;;;5131862;27;20607;-58
2023/10/25 08:01:52;;;;;;;10.77;6.00;;;;;;;;;;5127729;27;20154;-57
2023/10/25 08:04:19;;;;;;;15.82;6.32;;;;;;;;;;5140733;27;20074;-57
2023/10/25 08:06:45;;;;;;;8.93;6.00;;;;;;;;;;5140002;27;20055;-57
2023/10/25 08:09:12;;;;;;;12.30;6.10;;;;;;;;;;5142161;27;20057;-58
2023/10/25 08:11:38;;;;;;;16.13;6.20;;;;;;;;;;5122967;27;20105;-56
2023/10/25 08:14:05;;;;;;;10.50;7.05;;;;;;;;;;5136946;27;20158;-57
2023/10/25 08:16:32;;;;;;;12.05;5.95;;;;;;;;;;5142941;27;20042;-58
2023/10/25 08:18:58;;;;;;;11.13;6.38;;;;;;;;;;5129178;27;20058;-57
2023/10/25 08:21:25;;;;;;;12.70;6.57;;;;;;;;;;5138809;27;20059;-56
2023/10/25 08:23:51;;;;;;;14.15;6.82;;;;;;;;;;5139795;27;20155;-57
2023/10/25 08:26:21;;;;;;;8.40;5.85;;;;;;;;;;5142693;27;20157;-57
2023/10/25 08:28:47;;;;;;;7.43;5.47;;;;;;;;;;5142376;27;20055;-56
2023/10/25 08:31:14;;;;;;;8.02;5.93;;;;;;;;;;5142625;27;20505;-55
2023/10/25 08:33:40;;;;;;;9.27;6.00;;;;;;;;;;5139671;27;20047;-57
2023/10/25 08:36:07;;;;;;;11.88;5.85;;;;;;;;;;5129473;27;20046;-57
2023/10/25 08:38:34;;;;;;;11.40;5.45;;;;;;;;;;5126262;27;20677;-57
2023/10/25 08:41:04;;;;;;;11.30;6.28;;;;;;;;;;5129020;27;20052;-55
2023/10/25 08:43:34;;;;;;;11.55;5.78;;;;;;;;;;5125111;27;20058;-55
2023/10/25 08:46:04;;;;;;;9.40;6.35;;;;;;;;;;5125654;27;20139;-58
2023/10/25 08:48:31;;;;;;;8.90;5.35;;;;;;;;;;5143264;27;20511;-57
2023/10/25 08:51:01;;;;;;;8.15;5.60;;;;;;;;;;5123129;27;20591;-57
2023/10/25 08:53:28;;;;;;;8.82;5.25;;;;;;;;;;5140196;27;20055;-57
2023/10/25 08:55:55;;;;;;;8.27;5.25;;;;;;;;;;5138513;27;20050;-56
2023/10/25 08:58:23;;;;;;;11.23;5.60;;;;;;;;;;5143905;27;20135;-56
2023/10/25 09:00:51;;;;;;;7.97;5.25;;;;;;;;;;5146518;27;20087;-58
2023/10/25 09:03:29;;;;;;;12.23;5.53;;;;;;;;;;5132313;27;20055;-57
2023/10/25 09:05:56;;;;;;;8.30;5.22;;;;;;;;;;5135254;27;20080;-57
2023/10/25 09:08:24;;;;;;;13.13;5.50;;;;;;;;;;5145939;27;20057;-58
2023/10/25 09:10:54;;;;;;;11.00;6.10;;;;;;;;;;5133107;27;20052;-56
2023/10/25 09:13:21;;;;;;;8.13;5.97;;;;;;;;;;5125253;27;20463;-57
2023/10/25 09:15:47;;;;;;;10.10;5.70;;;;;;;;;;5126766;27;20507;-58
2023/10/25 09:18:14;;;;;;;13.27;6.47;;;;;;;;;;5130818;27;20386;-57
2023/10/25 09:20:40;;;;;;;10.00;5.90;;;;;;;;;;5145573;27;20061;-58
2023/10/25 09:23:10;;;;;;;12.88;5.25;;;;;;;;;;5125824;27;20056;-57
2023/10/25 09:25:39;;;;;;;11.02;6.20;;;;;;;;;;5139866;27;20653;-58
2023/10/25 09:28:16;;;;;;;7.50;6.07;;;;;;;;;;5145279;27;20425;-56
2023/10/25 09:30:42;;;;;;;9.23;5.90;;;;;;;;;;5140289;27;20505;-58
2023/10/25 09:33:09;;;;;;;9.80;5.95;;;;;;;;;;5129709;27;20048;-55
2023/10/25 09:35:36;;;;;;;9.40;5.70;;;;;;;;;;5125386;27;20052;-57
2023/10/25 09:38:03;;;;;;;9.68;5.72;;;;;;;;;;5118970;27;20451;-58
2023/10/25 09:40:29;;;;;;;8.18;5.95;;;;;;;;;;5132360;27;20051;-58
2023/10/25 09:42:59;;;;;;;9.27;5.40;;;;;;;;;;5134961;27;20055;-54
2023/10/25 09:45:31;;;;;;;9.65;5.63;;;;;;;;;;5129754;27;20058;-55
2023/10/25 09:48:03;;;;;;;10.32;5.72;;;;;;;;;;5131131;27;20086;-57
2023/10/25 09:50:32;;;;;;;8.02;5.68;;;;;;;;;;5135219;27;20529;-56
2023/10/25 09:53:02;;;;;;;10.90;6.18;;;;;;;;;;5135871;27;20544;-58
2023/10/25 09:55:31;;;;;;;10.27;6.70;;;;;;;;;;5136795;27;20060;-56
2023/10/25 09:57:58;;;;;;;11.40;6.45;;;;;;;;;;5132259;27;20058;-57
2023/10/25 10:00:25;;;;;;;9.43;6.68;;;;;;;;;;5131666;27;20146;-56
2023/10/25 10:02:51;;;;;;;11.15;6.43;;;;;;;;;;5130193;27;20594;-58
2023/10/25 10:05:18;;;;;;;11.38;7.07;;;;;;;;;;5130413;27;20044;-57
2023/10/25 10:08:04;;;;;;;8.50;6.22;;;;;;;;;;5136935;27;20055;-57
2023/10/25 10:10:33;;;;;;;13.23;7.00;;;;;;;;;;5111656;27;20539;-57
2023/10/25 10:13:12;;;;;;;10.23;6.32;;;;;;;;;;5131598;27;20557;-55
2023/10/25 10:15:58;;;;;;;9.55;6.05;;;;;;;;;;5134405;27;20139;-54
2023/10/25 10:18:28;;;;;;;10.95;6.57;;;;;;;;;;5134331;27;20055;-53
2023/10/25 10:21:02;;;;;;;10.25;5.88;;;;;;;;;;5127087;27;20056;-53
2023/10/25 10:23:33;;;;;;;10.38;6.30;;;;;;;;;;5127614;27;20056;-53
2023/10/25 10:26:01;;;;;;;9.35;6.18;;;;;;;;;;5116536;27;20054;-55
2023/10/25 10:28:44;;;;;;;13.35;6.90;;;;;;;;;;5124511;27;20552;-56
2023/10/25 10:31:11;;;;;;;10.98;7.38;;;;;;;;;;5124159;27;20051;-57
2023/10/25 10:33:42;;;;;;;14.82;7.45;;;;;;;;;;5128492;27;20055;-57
2023/10/25 10:36:09;;;;;;;12.55;6.88;;;;;;;;;;5143697;27;20059;-55
2023/10/25 10:39:07;;;;;;;10.98;7.07;;;;;;;;;;5144014;27;20134;-57
2023/10/25 10:41:34;;;;;;;12.20;6.65;;;;;;;;;;5131599;27;20101;-58
2023/10/25 10:44:00;;;;;;;13.32;7.22;;;;;;;;;;5129862;27;20087;-57
2023/10/25 10:46:29;;;;;;;11.30;7.63;;;;;;;;;;5125945;27;20052;-53
2023/10/25 10:49:00;;;;;;;12.15;7.28;;;;;;;;;;5136400;27;20062;-54
2023/10/25 10:51:27;;;;;;;12.07;7.20;;;;;;;;;;5138403;27;20166;-58
2023/10/25 10:53:53;;;;;;;14.75;8.30;;;;;;;;;;5141900;27;20132;-58
2023/10/25 10:56:20;;;;;;;14.00;7.55;;;;;;;;;;5130011;27;20055;-57
2023/10/25 10:58:47;;;;;;;11.82;8.43;;;;;;;;;;5138741;27;20056;-54
2023/10/25 11:01:13;;;;;;;16.23;7.47;;;;;;;;;;5138127;27;20058;-57
2023/10/25 11:03:42;;;;;;;12.35;7.85;;;;;;;;;;5144203;27;20069;-57
2023/10/25 11:06:09;;;;;;;12.13;7.93;;;;;;;;;;5124267;27;20063;-56
2023/10/25 11:08:35;;;;;;;11.45;7.90;;;;;;;;;;5113100;27;20448;-58
2023/10/25 11:11:02;;;;;;;13.18;8.60;;;;;;;;;;5134540;27;20173;-57
2023/10/25 11:13:31;;;;;;;14.43;8.05;;;;;;;;;;5130296;27;20055;-55
2023/10/25 11:16:01;;;;;;;18.92;8.73;;;;;;;;;;5129979;27;20572;-57
2023/10/25 11:18:28;;;;;;;11.48;8.30;;;;;;;;;;5142522;27;20051;-57
2023/10/25 11:20:54;;;;;;;13.57;8.57;;;;;;;;;;5133885;27;20108;-57
2023/10/25 11:23:20;;;;;;;11.82;8.90;;;;;;;;;;5126931;27;20062;-57
2023/10/25 11:25:47;;;;;;;15.77;8.80;;;;;;;;;;5123461;27;20047;-56
2023/10/25 11:28:18;;;;;;;16.92;8.70;;;;;;;;;;5126648;27;20054;-55
2023/10/25 11:30:45;;;;;;;13.15;8.20;;;;;;;;;;5144559;27;20047;-58
2023/10/25 11:33:12;;;;;;;10.35;7.43;;;;;;;;;;5143430;27;20603;-57
2023/10/25 11:35:40;;;;;;;13.20;8.43;;;;;;;;;;5143103;27;20053;-58
2023/10/25 11:38:07;;;;;;;15.48;7.57;;;;;;;;;;5143815;27;20566;-58
2023/10/25 11:40:35;;;;;;;12.90;7.93;;;;;;;;;;5131454;27;20052;-57
2023/10/25 11:43:03;;;;;;;14.60;8.43;;;;;;;;;;5135228;27;20047;-55
2023/10/25 11:45:29;;;;;;;9.70;6.88;;;;;;;;;;5125673;27;20051;-58
2023/10/25 11:47:56;;;;;;;11.35;7.20;;;;;;;;;;5132313;27;20150;-53
2023/10/25 11:50:23;;;;;;;18.60;8.48;;;;;;;;;;5132624;27;20098;-58
2023/10/25 11:52:49;;;;;;;16.33;9.52;;;;;;;;;;5134023;27;20048;-54
2023/10/25 11:55:16;;;;;;;13.98;8.93;;;;;;;;;;5126093;27;20051;-57
2023/10/25 11:57:42;;;;;;;11.82;8.32;;;;;;;;;;5137288;27;20159;-53
2023/10/25 12:00:09;;;;;;;15.82;7.25;;;;;;;;;;5139343;27;20264;-55
2023/10/25 12:02:35;;;;;;;13.18;7.20;;;;;;;;;;5144116;27;20081;-56
2023/10/25 12:05:03;;;;;;;13.85;7.90;;;;;;;;;;5136129;27;20492;-58
2023/10/25 12:07:33;;;;;;;11.90;6.93;;;;;;;;;;5134916;27;20461;-58
2023/10/25 12:09:59;;;;;;;15.57;7.53;;;;;;;;;;5140035;27;20491;-56
2023/10/25 12:12:25;;;;;;;13.55;6.95;;;;;;;;;;5141504;27;20054;-56
2023/10/25 12:14:52;;;;;;;14.73;7.20;;;;;;;;;;5123211;27;20056;-58
2023/10/25 12:17:19;;;;;;;10.93;7.30;;;;;;;;;;5122734;27;20047;-58
2023/10/25 12:19:47;;;;;;;16.52;7.63;;;;;;;;;;5128089;27;20052;-56
2023/10/25 12:22:13;;;;;;;10.38;6.80;;;;;;;;;;5140165;27;20051;-58
2023/10/25 12:24:41;;;;;;;13.65;7.70;;;;;;;;;;5142283;27;20058;-57
2023/10/25 12:27:09;;;;;;;13.95;8.15;;;;;;;;;;5141986;27;20043;-58
2023/10/25 12:29:35;;;;;;;15.13;8.18;;;;;;;;;;5131445;27;20155;-58
2023/10/25 12:32:05;;;;;;;11.52;6.70;;;;;;;;;;5122354;27;20506;-57
2023/10/25 12:34:32;;;;;;;10.98;7.55;;;;;;;;;;5122228;27;20051;-57
2023/10/25 12:36:58;;;;;;;11.02;7.32;;;;;;;;;;5122058;27;20056;-58
2023/10/25 12:39:26;;;;;;;13.48;6.43;;;;;;;;;;5127805;27;20043;-57
2023/10/25 12:41:53;;;;;;;16.45;7.28;;;;;;;;;;5136425;27;20497;-54
2023/10/25 12:44:19;;;;;;;15.80;7.15;;;;;;;;;;5139027;27;20054;-55
2023/10/25 12:46:46;;;;;;;12.05;6.65;;;;;;;;;;5133996;27;20595;-51
2023/10/25 12:49:18;;;;;;;12.07;6.65;;;;;;;;;;5141591;27;20144;-58
2023/10/25 12:51:47;;;;;;;10.40;6.53;;;;;;;;;;5123686;27;20135;-57
2023/10/25 12:54:13;;;;;;;10.95;5.55;;;;;;;;;;5142934;27;20561;-58
2023/10/25 12:56:40;;;;;;;13.35;7.07;;;;;;;;;;5125022;27;20075;-56
2023/10/25 12:59:06;;;;;;;12.25;6.85;;;;;;;;;;5141864;27;20048;-57
2023/10/25 13:01:33;;;;;;;13.55;7.28;;;;;;;;;;5131512;27;20057;-56
2023/10/25 13:03:59;;;;;;;11.82;6.78;;;;;;;;;;5141643;27;20139;-57
2023/10/25 13:06:26;;;;;;;10.70;6.53;;;;;;;;;;5139198;27;20527;-56
2023/10/25 13:08:55;;;;;;;12.93;6.75;;;;;;;;;;5143319;27;20063;-57
2023/10/25 13:11:22;;;;;;;11.43;7.35;;;;;;;;;;5125603;27;20506;-58
2023/10/25 13:13:48;;;;;;;9.25;6.07;;;;;;;;;;5122220;27;20528;-57
2023/10/25 13:16:14;;;;;;;12.73;7.10;;;;;;;;;;5130184;27;20529;-54
2023/10/25 13:18:41;;;;;;;13.88;6.88;;;;;;;;;;5140672;27;20055;-57
2023/10/25 13:21:08;;;;;;;12.18;6.88;;;;;;;;;;5139476;27;20092;-56
2023/10/25 13:23:34;;;;;;;12.95;6.35;;;;;;;;;;5142737;27;20047;-56
2023/10/25 13:26:01;;;;;;;13.38;5.95;;;;;;;;;;5130241;27;20097;-52
2023/10/25 13:28:27;;;;;;;10.68;6.97;;;;;;;;;;5125667;27;20055;-57
2023/10/25 13:30:54;;;;;;;12.80;6.50;;;;;;;;;;5129579;27;20054;-57
2023/10/25 13:33:20;;;;;;;12.55;6.68;;;;;;;;;;5138801;27;20047;-54
2023/10/25 13:35:51;;;;;;;10.93;7.20;;;;;;;;;;5137512;27;20098;-54
2023/10/25 13:38:17;;;;;;;12.57;6.30;;;;;;;;;;5126198;27;20060;-59
2023/10/25 13:40:46;;;;;;;16.77;8.27;;;;;;;;;;5128263;27;20065;-58
2023/10/25 13:43:14;;;;;;;10.02;7.13;;;;;;;;;;5129676;27;20056;-57
2023/10/25 13:45:41;;;;;;;9.82;6.78;;;;;;;;;;5126222;27;20044;-57
2023/10/25 13:48:08;;;;;;;13.07;7.03;;;;;;;;;;5139610;27;20062;-54
2023/10/25 13:50:34;;;;;;;15.20;9.35;;;;;;;;;;5141407;27;20051;-57
2023/10/25 13:53:01;;;;;;;11.70;6.85;;;;;;;;;;5140845;27;20055;-58
2023/10/25 13:55:27;;;;;;;9.88;7.05;;;;;;;;;;5132439;27;20066;-56
2023/10/25 13:57:53;;;;;;;10.13;6.38;;;;;;;;;;5137539;27;20141;-56
2023/10/25 14:00:20;;;;;;;10.65;7.63;;;;;;;;;;5141596;27;20504;-54
2023/10/25 14:02:47;;;;;;;9.68;6.57;;;;;;;;;;5126587;27;20058;-56
2023/10/25 14:05:14;;;;;;;11.35;6.53;;;;;;;;;;5142262;27;20162;-57
2023/10/25 14:07:41;;;;;;;11.55;6.72;;;;;;;;;;5144976;27;20491;-53
2023/10/25 14:10:08;;;;;;;12.68;7.32;;;;;;;;;;5144230;27;20149;-55
2023/10/25 14:12:35;;;;;;;9.65;6.47;;;;;;;;;;5142061;27;20047;-57
2023/10/25 14:15:01;;;;;;;7.63;6.47;;;;;;;;;;5139357;27;20569;-54
2023/10/25 14:17:28;;;;;;;11.35;6.88;;;;;;;;;;5135368;27;20127;-54
2023/10/25 14:19:55;;;;;;;8.57;6.50;;;;;;;;;;5141207;27;20056;-57
2023/10/25 14:22:22;;;;;;;11.45;6.10;;;;;;;;;;5136256;27;20062;-54
2023/10/25 14:24:49;;;;;;;11.80;6.28;;;;;;;;;;5127370;27;20507;-57
2023/10/25 14:27:15;;;;;;;12.15;7.03;;;;;;;;;;5128913;27;20087;-56
2023/10/25 14:29:42;;;;;;;7.65;6.28;;;;;;;;;;5136423;27;20052;-56
2023/10/25 14:32:09;;;;;;;10.15;6.78;;;;;;;;;;5135991;27;20062;-54
2023/10/25 14:34:35;;;;;;;15.57;6.47;;;;;;;;;;5143519;27;20138;-55